FBSK/GBE METAR and TAF weather

Enter ICAO airport designator
Station Type Date Time Source
FBSK METAR 2023/02/05 12:00 UTC NOAA

FBSK 051200Z VRB03KT 9999 SCT030 29/17 Q1016 NOSIG


Station Type Date Time Source
FBSK Decoded METAR 2023/02/05 12:00 UTC NOAA

Seretse Khama International Airport, Botswana (FBSK) 24-13S 025-55E 1005M
Feb 05, 2023 - 07:00 AM EST / 2023.02.05 1200 UTC
Wind: Variable at 3 MPH (3 KT):0
Visibility: greater than 7 mile(s):0
Sky conditions: partly cloudy
Temperature: 84 F (29 C)
Dew Point: 62 F (17 C)
Relative Humidity: 48%
Pressure (altimeter): 30.00 in. Hg (1016 hPa)
ob: FBSK 051200Z VRB03KT 9999 SCT030 29/17 Q1016 NOSIG
cycle: 12

Station Type Date Time Source
FBSK TAF 2023/02/05 12:48 UTC NOAA

TAF FBSK 051100Z 0512/0618 04004KT 9999 SCT030 FEW035CB
BECMG 0518/0520 CAVOK

Example: see airport list